sensor_id;sensor_type;location;lat;lon;timestamp;temperature;humidity
49413;DHT22;35493;50.276;9.372;2023-04-06T00:00:22;3.20;70.20
49413;DHT22;35493;50.276;9.372;2023-04-06T00:02:49;3.20;70.20
49413;DHT22;35493;50.276;9.372;2023-04-06T00:05:17;3.10;70.30
49413;DHT22;35493;50.276;9.372;2023-04-06T00:07:44;3.10;70.30
49413;DHT22;35493;50.276;9.372;2023-04-06T00:10:12;3.00;70.30
49413;DHT22;35493;50.276;9.372;2023-04-06T00:12:39;3.00;70.40
49413;DHT22;35493;50.276;9.372;2023-04-06T00:15:06;3.00;70.40
49413;DHT22;35493;50.276;9.372;2023-04-06T00:17:33;2.90;70.50
49413;DHT22;35493;50.276;9.372;2023-04-06T00:20:00;3.00;70.40
49413;DHT22;35493;50.276;9.372;2023-04-06T00:22:27;3.00;70.50
49413;DHT22;35493;50.276;9.372;2023-04-06T00:24:53;3.00;70.40
49413;DHT22;35493;50.276;9.372;2023-04-06T00:27:22;3.00;70.40
49413;DHT22;35493;50.276;9.372;2023-04-06T00:29:48;3.00;70.50
49413;DHT22;35493;50.276;9.372;2023-04-06T00:32:15;2.90;70.60
49413;DHT22;35493;50.276;9.372;2023-04-06T00:34:42;2.90;70.70
49413;DHT22;35493;50.276;9.372;2023-04-06T00:37:10;2.90;70.60
49413;DHT22;35493;50.276;9.372;2023-04-06T00:39:37;2.90;70.40
49413;DHT22;35493;50.276;9.372;2023-04-06T00:42:06;2.90;70.40
49413;DHT22;35493;50.276;9.372;2023-04-06T00:44:35;2.80;70.50
49413;DHT22;35493;50.276;9.372;2023-04-06T00:47:03;2.80;70.60
49413;DHT22;35493;50.276;9.372;2023-04-06T00:49:29;2.80;70.70
49413;DHT22;35493;50.276;9.372;2023-04-06T00:51:56;2.80;70.80
49413;DHT22;35493;50.276;9.372;2023-04-06T00:54:23;2.70;70.80
49413;DHT22;35493;50.276;9.372;2023-04-06T00:56:50;2.70;70.80
49413;DHT22;35493;50.276;9.372;2023-04-06T00:59:17;2.70;70.90
49413;DHT22;35493;50.276;9.372;2023-04-06T01:01:47;2.70;70.90
49413;DHT22;35493;50.276;9.372;2023-04-06T01:04:29;2.70;70.80
49413;DHT22;35493;50.276;9.372;2023-04-06T01:06:57;2.60;70.90
49413;DHT22;35493;50.276;9.372;2023-04-06T01:09:31;2.60;71.00
49413;DHT22;35493;50.276;9.372;2023-04-06T01:12:01;2.60;70.90
49413;DHT22;35493;50.276;9.372;2023-04-06T01:14:30;2.60;71.00
49413;DHT22;35493;50.276;9.372;2023-04-06T01:17:00;2.60;71.00
49413;DHT22;35493;50.276;9.372;2023-04-06T01:19:30;2.60;71.10
49413;DHT22;35493;50.276;9.372;2023-04-06T01:21:57;2.50;71.20
49413;DHT22;35493;50.276;9.372;2023-04-06T01:24:32;2.60;71.20
49413;DHT22;35493;50.276;9.372;2023-04-06T01:27:01;2.50;71.30
49413;DHT22;35493;50.276;9.372;2023-04-06T01:29:41;2.50;71.30
49413;DHT22;35493;50.276;9.372;2023-04-06T01:32:10;2.40;71.40
49413;DHT22;35493;50.276;9.372;2023-04-06T01:34:45;2.40;71.40
49413;DHT22;35493;50.276;9.372;2023-04-06T01:37:12;2.40;71.50
49413;DHT22;35493;50.276;9.372;2023-04-06T01:39:40;2.30;71.60
49413;DHT22;35493;50.276;9.372;2023-04-06T01:42:10;2.40;71.50
49413;DHT22;35493;50.276;9.372;2023-04-06T01:44:38;2.40;71.40
49413;DHT22;35493;50.276;9.372;2023-04-06T01:47:12;2.40;71.40
49413;DHT22;35493;50.276;9.372;2023-04-06T01:49:40;2.40;71.60
49413;DHT22;35493;50.276;9.372;2023-04-06T01:52:07;2.40;71.40
49413;DHT22;35493;50.276;9.372;2023-04-06T01:54:37;2.40;71.40
49413;DHT22;35493;50.276;9.372;2023-04-06T01:57:15;2.30;71.50
49413;DHT22;35493;50.276;9.372;2023-04-06T02:00:06;2.30;71.70
49413;DHT22;35493;50.276;9.372;2023-04-06T02:02:41;2.30;71.80
49413;DHT22;35493;50.276;9.372;2023-04-06T02:05:16;2.20;71.80
49413;DHT22;35493;50.276;9.372;2023-04-06T02:07:43;2.20;71.70
49413;DHT22;35493;50.276;9.372;2023-04-06T02:10:14;2.20;71.80
49413;DHT22;35493;50.276;9.372;2023-04-06T02:12:44;2.20;71.80
49413;DHT22;35493;50.276;9.372;2023-04-06T02:15:17;2.20;72.00
49413;DHT22;35493;50.276;9.372;2023-04-06T02:17:43;2.20;72.00
49413;DHT22;35493;50.276;9.372;2023-04-06T02:20:10;2.10;72.00
49413;DHT22;35493;50.276;9.372;2023-04-06T02:22:37;2.00;72.20
49413;DHT22;35493;50.276;9.372;2023-04-06T02:25:04;2.00;72.30
49413;DHT22;35493;50.276;9.372;2023-04-06T02:27:32;2.10;72.10
49413;DHT22;35493;50.276;9.372;2023-04-06T02:30:00;2.00;72.20
49413;DHT22;35493;50.276;9.372;2023-04-06T02:32:27;2.00;72.10
49413;DHT22;35493;50.276;9.372;2023-04-06T02:34:55;2.00;72.20
49413;DHT22;35493;50.276;9.372;2023-04-06T02:37:22;1.90;72.50
49413;DHT22;35493;50.276;9.372;2023-04-06T02:39:49;1.90;72.40
49413;DHT22;35493;50.276;9.372;2023-04-06T02:42:16;1.90;72.40
49413;DHT22;35493;50.276;9.372;2023-04-06T02:44:46;1.90;72.20
49413;DHT22;35493;50.276;9.372;2023-04-06T02:47:14;2.00;72.20
49413;DHT22;35493;50.276;9.372;2023-04-06T02:49:46;1.90;72.40
49413;DHT22;35493;50.276;9.372;2023-04-06T02:52:13;1.80;72.60
49413;DHT22;35493;50.276;9.372;2023-04-06T02:54:39;1.80;72.70
49413;DHT22;35493;50.276;9.372;2023-04-06T02:57:07;1.80;72.90
49413;DHT22;35493;50.276;9.372;2023-04-06T02:59:39;1.80;72.80
49413;DHT22;35493;50.276;9.372;2023-04-06T03:02:21;1.80;72.80
49413;DHT22;35493;50.276;9.372;2023-04-06T03:04:48;1.80;72.70
49413;DHT22;35493;50.276;9.372;2023-04-06T03:07:26;1.80;72.70
49413;DHT22;35493;50.276;9.372;2023-04-06T03:09:53;1.70;72.70
49413;DHT22;35493;50.276;9.372;2023-04-06T03:12:20;1.80;72.70
49413;DHT22;35493;50.276;9.372;2023-04-06T03:15:07;1.80;72.70
49413;DHT22;35493;50.276;9.372;2023-04-06T03:17:36;1.80;72.80
49413;DHT22;35493;50.276;9.372;2023-04-06T03:20:08;1.70;73.00
49413;DHT22;35493;50.276;9.372;2023-04-06T03:22:35;1.70;73.10
49413;DHT22;35493;50.276;9.372;2023-04-06T03:25:02;1.70;73.10
49413;DHT22;35493;50.276;9.372;2023-04-06T03:27:31;1.70;73.00
49413;DHT22;35493;50.276;9.372;2023-04-06T03:29:58;1.70;73.00
49413;DHT22;35493;50.276;9.372;2023-04-06T03:32:31;1.70;73.00
49413;DHT22;35493;50.276;9.372;2023-04-06T03:34:59;1.70;73.10
49413;DHT22;35493;50.276;9.372;2023-04-06T03:37:26;1.60;73.20
49413;DHT22;35493;50.276;9.372;2023-04-06T03:39:58;1.50;73.30
49413;DHT22;35493;50.276;9.372;2023-04-06T03:42:25;1.60;73.40
49413;DHT22;35493;50.276;9.372;2023-04-06T03:44:57;1.50;73.40
49413;DHT22;35493;50.276;9.372;2023-04-06T03:47:24;1.50;73.50
49413;DHT22;35493;50.276;9.372;2023-04-06T03:49:55;1.50;73.60
49413;DHT22;35493;50.276;9.372;2023-04-06T03:52:24;1.40;73.60
49413;DHT22;35493;50.276;9.372;2023-04-06T03:54:51;1.40;73.70
49413;DHT22;35493;50.276;9.372;2023-04-06T03:57:18;1.40;73.80
49413;DHT22;35493;50.276;9.372;2023-04-06T03:59:45;1.40;73.80
49413;DHT22;35493;50.276;9.372;2023-04-06T04:02:12;1.40;73.80
49413;DHT22;35493;50.276;9.372;2023-04-06T04:04:39;1.30;73.90
49413;DHT22;35493;50.276;9.372;2023-04-06T04:07:05;1.40;73.80
49413;DHT22;35493;50.276;9.372;2023-04-06T04:09:34;1.30;73.90
49413;DHT22;35493;50.276;9.372;2023-04-06T04:12:00;1.30;73.90
49413;DHT22;35493;50.276;9.372;2023-04-06T04:14:29;1.30;74.10
49413;DHT22;35493;50.276;9.372;2023-04-06T04:16:56;1.20;74.20
49413;DHT22;35493;50.276;9.372;2023-04-06T04:19:22;1.20;74.20
49413;DHT22;35493;50.276;9.372;2023-04-06T04:21:49;1.20;74.30
49413;DHT22;35493;50.276;9.372;2023-04-06T04:24:20;1.30;74.10
49413;DHT22;35493;50.276;9.372;2023-04-06T04:26:48;1.30;74.10
49413;DHT22;35493;50.276;9.372;2023-04-06T04:29:16;1.40;73.80
49413;DHT22;35493;50.276;9.372;2023-04-06T04:31:45;1.40;73.70
49413;DHT22;35493;50.276;9.372;2023-04-06T04:34:16;1.30;73.80
49413;DHT22;35493;50.276;9.372;2023-04-06T04:36:44;1.30;74.00
49413;DHT22;35493;50.276;9.372;2023-04-06T04:39:18;1.20;74.30
49413;DHT22;35493;50.276;9.372;2023-04-06T04:41:52;1.20;74.20
49413;DHT22;35493;50.276;9.372;2023-04-06T04:44:19;1.20;74.30
49413;DHT22;35493;50.276;9.372;2023-04-06T04:46:46;1.20;74.30
49413;DHT22;35493;50.276;9.372;2023-04-06T04:49:15;1.20;74.40
49413;DHT22;35493;50.276;9.372;2023-04-06T04:51:42;1.20;74.40
49413;DHT22;35493;50.276;9.372;2023-04-06T04:54:19;1.20;74.20
49413;DHT22;35493;50.276;9.372;2023-04-06T04:56:46;1.20;74.20
49413;DHT22;35493;50.276;9.372;2023-04-06T04:59:40;1.20;74.20
49413;DHT22;35493;50.276;9.372;2023-04-06T05:02:14;1.20;74.40
49413;DHT22;35493;50.276;9.372;2023-04-06T05:04:51;1.10;74.40
49413;DHT22;35493;50.276;9.372;2023-04-06T05:07:22;1.20;74.40
49413;DHT22;35493;50.276;9.372;2023-04-06T05:09:51;1.20;74.20
49413;DHT22;35493;50.276;9.372;2023-04-06T05:12:19;1.10;74.30
49413;DHT22;35493;50.276;9.372;2023-04-06T05:14:56;1.20;74.40
49413;DHT22;35493;50.276;9.372;2023-04-06T05:17:23;1.20;74.30
49413;DHT22;35493;50.276;9.372;2023-04-06T05:19:51;1.10;74.60
49413;DHT22;35493;50.276;9.372;2023-04-06T05:22:22;1.00;74.70
49413;DHT22;35493;50.276;9.372;2023-04-06T05:24:58;1.10;74.90
49413;DHT22;35493;50.276;9.372;2023-04-06T05:27:24;1.20;74.70
49413;DHT22;35493;50.276;9.372;2023-04-06T05:29:52;1.20;74.50
49413;DHT22;35493;50.276;9.372;2023-04-06T05:32:20;1.20;74.50
49413;DHT22;35493;50.276;9.372;2023-04-06T05:34:50;1.20;74.60
49413;DHT22;35493;50.276;9.372;2023-04-06T05:37:17;1.20;74.70
49413;DHT22;35493;50.276;9.372;2023-04-06T05:39:44;1.20;74.60
49413;DHT22;35493;50.276;9.372;2023-04-06T05:42:11;1.20;74.60
49413;DHT22;35493;50.276;9.372;2023-04-06T05:44:55;1.20;74.70
49413;DHT22;35493;50.276;9.372;2023-04-06T05:47:23;1.20;74.80
49413;DHT22;35493;50.276;9.372;2023-04-06T05:49:57;1.20;74.80
49413;DHT22;35493;50.276;9.372;2023-04-06T05:52:31;1.20;75.00
49413;DHT22;35493;50.276;9.372;2023-04-06T05:54:58;1.20;75.00
49413;DHT22;35493;50.276;9.372;2023-04-06T05:57:25;1.30;74.80
49413;DHT22;35493;50.276;9.372;2023-04-06T05:59:53;1.40;74.60
49413;DHT22;35493;50.276;9.372;2023-04-06T06:02:24;1.30;74.50
49413;DHT22;35493;50.276;9.372;2023-04-06T06:04:52;1.40;74.40
49413;DHT22;35493;50.276;9.372;2023-04-06T06:07:19;1.40;74.50
49413;DHT22;35493;50.276;9.372;2023-04-06T06:09:55;1.50;74.30
49413;DHT22;35493;50.276;9.372;2023-04-06T06:12:27;1.50;74.50
49413;DHT22;35493;50.276;9.372;2023-04-06T06:14:54;1.60;74.60
49413;DHT22;35493;50.276;9.372;2023-04-06T06:17:24;1.60;74.50
49413;DHT22;35493;50.276;9.372;2023-04-06T06:19:51;1.70;74.40
49413;DHT22;35493;50.276;9.372;2023-04-06T06:22:18;1.70;74.10
49413;DHT22;35493;50.276;9.372;2023-04-06T06:24:46;1.80;74.10
49413;DHT22;35493;50.276;9.372;2023-04-06T06:27:16;1.90;73.90
49413;DHT22;35493;50.276;9.372;2023-04-06T06:29:43;2.00;73.50
49413;DHT22;35493;50.276;9.372;2023-04-06T06:32:10;2.10;73.50
49413;DHT22;35493;50.276;9.372;2023-04-06T06:34:39;2.20;73.20
49413;DHT22;35493;50.276;9.372;2023-04-06T06:37:07;2.20;72.40
49413;DHT22;35493;50.276;9.372;2023-04-06T06:39:36;2.40;72.80
49413;DHT22;35493;50.276;9.372;2023-04-06T06:42:04;2.50;72.70
49413;DHT22;35493;50.276;9.372;2023-04-06T06:44:50;2.60;72.50
49413;DHT22;35493;50.276;9.372;2023-04-06T06:47:18;2.70;72.20
49413;DHT22;35493;50.276;9.372;2023-04-06T06:49:46;2.70;72.00
49413;DHT22;35493;50.276;9.372;2023-04-06T06:52:13;2.80;72.10
49413;DHT22;35493;50.276;9.372;2023-04-06T06:54:40;2.90;72.00
49413;DHT22;35493;50.276;9.372;2023-04-06T06:57:07;3.00;72.00
49413;DHT22;35493;50.276;9.372;2023-04-06T06:59:34;3.10;71.80
49413;DHT22;35493;50.276;9.372;2023-04-06T07:02:01;3.10;71.50
49413;DHT22;35493;50.276;9.372;2023-04-06T07:04:28;3.00;71.60
49413;DHT22;35493;50.276;9.372;2023-04-06T07:06:57;3.20;71.80
49413;DHT22;35493;50.276;9.372;2023-04-06T07:09:23;3.20;71.40
49413;DHT22;35493;50.276;9.372;2023-04-06T07:11:52;3.20;71.70
49413;DHT22;35493;50.276;9.372;2023-04-06T07:14:19;3.40;71.50
49413;DHT22;35493;50.276;9.372;2023-04-06T07:16:46;3.40;71.00
49413;DHT22;35493;50.276;9.372;2023-04-06T07:19:15;3.40;70.80
49413;DHT22;35493;50.276;9.372;2023-04-06T07:21:42;3.60;70.50
49413;DHT22;35493;50.276;9.372;2023-04-06T07:24:11;3.70;70.40
49413;DHT22;35493;50.276;9.372;2023-04-06T07:26:38;3.80;70.00
49413;DHT22;35493;50.276;9.372;2023-04-06T07:29:04;3.90;69.80
49413;DHT22;35493;50.276;9.372;2023-04-06T07:31:31;4.00;69.40
49413;DHT22;35493;50.276;9.372;2023-04-06T07:33:59;4.30;68.80
49413;DHT22;35493;50.276;9.372;2023-04-06T07:36:25;4.40;68.00
49413;DHT22;35493;50.276;9.372;2023-04-06T07:38:52;4.50;67.60
49413;DHT22;35493;50.276;9.372;2023-04-06T07:41:21;4.60;67.10
49413;DHT22;35493;50.276;9.372;2023-04-06T07:43:49;4.80;66.50
49413;DHT22;35493;50.276;9.372;2023-04-06T07:46:16;5.00;65.70
49413;DHT22;35493;50.276;9.372;2023-04-06T07:48:43;5.20;65.60
49413;DHT22;35493;50.276;9.372;2023-04-06T07:51:10;5.40;65.00
49413;DHT22;35493;50.276;9.372;2023-04-06T07:53:40;5.60;64.90
49413;DHT22;35493;50.276;9.372;2023-04-06T07:56:07;5.70;64.20
49413;DHT22;35493;50.276;9.372;2023-04-06T07:58:35;5.90;63.10
49413;DHT22;35493;50.276;9.372;2023-04-06T08:01:02;6.00;62.50
49413;DHT22;35493;50.276;9.372;2023-04-06T08:03:29;6.20;62.40
49413;DHT22;35493;50.276;9.372;2023-04-06T08:05:56;6.30;61.70
49413;DHT22;35493;50.276;9.372;2023-04-06T08:08:23;6.50;61.00
49413;DHT22;35493;50.276;9.372;2023-04-06T08:10:49;6.60;61.40
49413;DHT22;35493;50.276;9.372;2023-04-06T08:13:16;6.70;60.30
49413;DHT22;35493;50.276;9.372;2023-04-06T08:15:45;6.70;59.40
49413;DHT22;35493;50.276;9.372;2023-04-06T08:18:11;6.90;59.60
49413;DHT22;35493;50.276;9.372;2023-04-06T08:20:38;7.20;59.40
49413;DHT22;35493;50.276;9.372;2023-04-06T08:23:05;7.40;58.90
49413;DHT22;35493;50.276;9.372;2023-04-06T08:25:35;7.50;58.80
49413;DHT22;35493;50.276;9.372;2023-04-06T08:28:02;7.70;58.70
49413;DHT22;35493;50.276;9.372;2023-04-06T08:30:28;7.80;57.90
49413;DHT22;35493;50.276;9.372;2023-04-06T08:32:57;7.90;57.70
49413;DHT22;35493;50.276;9.372;2023-04-06T08:35:24;8.00;57.10
49413;DHT22;35493;50.276;9.372;2023-04-06T08:37:51;8.30;55.90
49413;DHT22;35493;50.276;9.372;2023-04-06T08:40:17;8.30;56.20
49413;DHT22;35493;50.276;9.372;2023-04-06T08:42:46;8.50;55.90
49413;DHT22;35493;50.276;9.372;2023-04-06T08:45:16;8.60;55.10
49413;DHT22;35493;50.276;9.372;2023-04-06T08:47:43;8.70;54.50
49413;DHT22;35493;50.276;9.372;2023-04-06T08:50:11;8.90;53.90
49413;DHT22;35493;50.276;9.372;2023-04-06T08:52:38;9.10;54.60
49413;DHT22;35493;50.276;9.372;2023-04-06T08:55:05;9.10;54.50
49413;DHT22;35493;50.276;9.372;2023-04-06T08:57:33;9.20;53.50
49413;DHT22;35493;50.276;9.372;2023-04-06T09:00:02;9.40;53.20
49413;DHT22;35493;50.276;9.372;2023-04-06T09:02:29;9.50;52.60
49413;DHT22;35493;50.276;9.372;2023-04-06T09:04:56;9.70;52.30
49413;DHT22;35493;50.276;9.372;2023-04-06T09:07:24;9.80;52.50
49413;DHT22;35493;50.276;9.372;2023-04-06T09:09:51;9.90;53.10
49413;DHT22;35493;50.276;9.372;2023-04-06T09:12:24;10.00;53.00
49413;DHT22;35493;50.276;9.372;2023-04-06T09:14:52;10.10;51.60
49413;DHT22;35493;50.276;9.372;2023-04-06T09:17:22;10.20;50.90
49413;DHT22;35493;50.276;9.372;2023-04-06T09:19:49;10.30;50.40
49413;DHT22;35493;50.276;9.372;2023-04-06T09:22:15;10.50;50.70
49413;DHT22;35493;50.276;9.372;2023-04-06T09:24:45;10.60;50.00
49413;DHT22;35493;50.276;9.372;2023-04-06T09:27:12;10.80;50.60
49413;DHT22;35493;50.276;9.372;2023-04-06T09:29:40;11.00;49.90
49413;DHT22;35493;50.276;9.372;2023-04-06T09:32:07;11.10;49.20
49413;DHT22;35493;50.276;9.372;2023-04-06T09:34:36;11.10;49.20
49413;DHT22;35493;50.276;9.372;2023-04-06T09:37:11;11.30;49.60
49413;DHT22;35493;50.276;9.372;2023-04-06T09:39:38;11.40;48.80
49413;DHT22;35493;50.276;9.372;2023-04-06T09:42:06;11.50;48.20
49413;DHT22;35493;50.276;9.372;2023-04-06T09:44:33;11.60;47.70
49413;DHT22;35493;50.276;9.372;2023-04-06T09:47:00;11.60;47.70
49413;DHT22;35493;50.276;9.372;2023-04-06T09:49:27;11.60;47.50
49413;DHT22;35493;50.276;9.372;2023-04-06T09:51:55;11.70;47.30
49413;DHT22;35493;50.276;9.372;2023-04-06T09:54:24;11.80;46.30
49413;DHT22;35493;50.276;9.372;2023-04-06T09:56:55;11.90;46.70
49413;DHT22;35493;50.276;9.372;2023-04-06T09:59:28;12.00;45.70
49413;DHT22;35493;50.276;9.372;2023-04-06T10:01:56;12.10;45.60
49413;DHT22;35493;50.276;9.372;2023-04-06T10:04:27;12.20;45.80
49413;DHT22;35493;50.276;9.372;2023-04-06T10:06:57;12.30;45.40
49413;DHT22;35493;50.276;9.372;2023-04-06T10:09:25;12.40;45.60
49413;DHT22;35493;50.276;9.372;2023-04-06T10:11:54;12.50;44.60
49413;DHT22;35493;50.276;9.372;2023-04-06T10:14:21;12.60;44.50
49413;DHT22;35493;50.276;9.372;2023-04-06T10:16:50;12.70;44.80
49413;DHT22;35493;50.276;9.372;2023-04-06T10:19:18;12.60;44.20
49413;DHT22;35493;50.276;9.372;2023-04-06T10:21:48;12.40;43.50
49413;DHT22;35493;50.276;9.372;2023-04-06T10:24:16;12.50;43.30
49413;DHT22;35493;50.276;9.372;2023-04-06T10:26:43;12.60;44.00
49413;DHT22;35493;50.276;9.372;2023-04-06T10:29:23;12.90;43.90
49413;DHT22;35493;50.276;9.372;2023-04-06T10:31:51;13.10;43.50
49413;DHT22;35493;50.276;9.372;2023-04-06T10:34:18;13.30;43.10
49413;DHT22;35493;50.276;9.372;2023-04-06T10:36:44;13.40;42.70
49413;DHT22;35493;50.276;9.372;2023-04-06T10:39:11;13.40;42.30
49413;DHT22;35493;50.276;9.372;2023-04-06T10:41:41;13.50;42.40
49413;DHT22;35493;50.276;9.372;2023-04-06T10:44:16;13.60;42.80
49413;DHT22;35493;50.276;9.372;2023-04-06T10:46:51;13.70;41.90
49413;DHT22;35493;50.276;9.372;2023-04-06T10:49:20;13.80;42.40
49413;DHT22;35493;50.276;9.372;2023-04-06T10:51:51;13.80;42.60
49413;DHT22;35493;50.276;9.372;2023-04-06T10:54:17;13.60;42.20
49413;DHT22;35493;50.276;9.372;2023-04-06T10:56:45;13.30;41.70
49413;DHT22;35493;50.276;9.372;2023-04-06T10:59:12;13.20;42.20
49413;DHT22;35493;50.276;9.372;2023-04-06T11:01:39;13.30;42.30
49413;DHT22;35493;50.276;9.372;2023-04-06T11:04:10;13.50;42.20
49413;DHT22;35493;50.276;9.372;2023-04-06T11:06:45;13.60;41.80
49413;DHT22;35493;50.276;9.372;2023-04-06T11:09:12;13.60;41.60
49413;DHT22;35493;50.276;9.372;2023-04-06T11:11:49;13.60;41.50
49413;DHT22;35493;50.276;9.372;2023-04-06T11:14:15;13.70;41.60
49413;DHT22;35493;50.276;9.372;2023-04-06T11:16:42;13.80;41.90
49413;DHT22;35493;50.276;9.372;2023-04-06T11:19:12;13.90;41.80
49413;DHT22;35493;50.276;9.372;2023-04-06T11:21:39;13.90;42.30
49413;DHT22;35493;50.276;9.372;2023-04-06T11:24:11;14.10;42.40
49413;DHT22;35493;50.276;9.372;2023-04-06T11:26:38;14.00;42.60
49413;DHT22;35493;50.276;9.372;2023-04-06T11:29:05;14.00;42.30
49413;DHT22;35493;50.276;9.372;2023-04-06T11:31:37;14.10;42.00
49413;DHT22;35493;50.276;9.372;2023-04-06T11:34:08;14.10;41.20
49413;DHT22;35493;50.276;9.372;2023-04-06T11:36:35;14.10;40.80
49413;DHT22;35493;50.276;9.372;2023-04-06T11:39:02;14.10;40.80
49413;DHT22;35493;50.276;9.372;2023-04-06T11:41:31;14.20;40.60
49413;DHT22;35493;50.276;9.372;2023-04-06T11:44:00;14.20;40.30
49413;DHT22;35493;50.276;9.372;2023-04-06T11:46:27;14.20;40.80
49413;DHT22;35493;50.276;9.372;2023-04-06T11:48:57;14.30;41.40
49413;DHT22;35493;50.276;9.372;2023-04-06T11:51:24;14.30;40.30
49413;DHT22;35493;50.276;9.372;2023-04-06T11:53:52;14.30;40.40
49413;DHT22;35493;50.276;9.372;2023-04-06T11:56:25;14.30;40.90
49413;DHT22;35493;50.276;9.372;2023-04-06T11:58:53;14.30;40.70
49413;DHT22;35493;50.276;9.372;2023-04-06T12:01:20;14.30;41.00
49413;DHT22;35493;50.276;9.372;2023-04-06T12:03:47;14.30;41.00
49413;DHT22;35493;50.276;9.372;2023-04-06T12:06:14;14.40;40.90
49413;DHT22;35493;50.276;9.372;2023-04-06T12:08:41;14.40;41.00
49413;DHT22;35493;50.276;9.372;2023-04-06T12:11:07;14.40;40.80
49413;DHT22;35493;50.276;9.372;2023-04-06T12:13:34;14.50;41.70
49413;DHT22;35493;50.276;9.372;2023-04-06T12:16:02;14.50;40.70
49413;DHT22;35493;50.276;9.372;2023-04-06T12:18:29;14.40;41.10
49413;DHT22;35493;50.276;9.372;2023-04-06T12:20:56;14.40;41.30
49413;DHT22;35493;50.276;9.372;2023-04-06T12:23:23;14.40;40.60
49413;DHT22;35493;50.276;9.372;2023-04-06T12:25:50;14.50;41.00
49413;DHT22;35493;50.276;9.372;2023-04-06T12:28:17;14.50;41.20
49413;DHT22;35493;50.276;9.372;2023-04-06T12:30:46;14.40;41.40
49413;DHT22;35493;50.276;9.372;2023-04-06T12:33:14;14.30;42.00
49413;DHT22;35493;50.276;9.372;2023-04-06T12:35:41;14.30;40.00
49413;DHT22;35493;50.276;9.372;2023-04-06T12:38:07;14.20;40.50
49413;DHT22;35493;50.276;9.372;2023-04-06T12:40:36;14.30;41.00
49413;DHT22;35493;50.276;9.372;2023-04-06T12:43:03;14.40;40.80
49413;DHT22;35493;50.276;9.372;2023-04-06T12:45:30;14.40;41.40
49413;DHT22;35493;50.276;9.372;2023-04-06T12:47:56;14.20;40.40
49413;DHT22;35493;50.276;9.372;2023-04-06T12:50:25;14.10;40.30
49413;DHT22;35493;50.276;9.372;2023-04-06T12:52:51;14.10;40.10
49413;DHT22;35493;50.276;9.372;2023-04-06T12:55:18;14.10;40.70
49413;DHT22;35493;50.276;9.372;2023-04-06T12:57:46;14.20;40.80
49413;DHT22;35493;50.276;9.372;2023-04-06T13:00:13;14.20;40.40
49413;DHT22;35493;50.276;9.372;2023-04-06T13:02:40;14.20;40.00
49413;DHT22;35493;50.276;9.372;2023-04-06T13:05:12;14.10;39.60
49413;DHT22;35493;50.276;9.372;2023-04-06T13:07:40;14.10;38.80
49413;DHT22;35493;50.276;9.372;2023-04-06T13:10:07;14.00;39.50
49413;DHT22;35493;50.276;9.372;2023-04-06T13:12:34;14.10;39.90
49413;DHT22;35493;50.276;9.372;2023-04-06T13:15:01;14.10;40.30
49413;DHT22;35493;50.276;9.372;2023-04-06T13:17:29;14.20;40.50
49413;DHT22;35493;50.276;9.372;2023-04-06T13:19:56;14.10;40.20
49413;DHT22;35493;50.276;9.372;2023-04-06T13:22:22;14.00;40.50
49413;DHT22;35493;50.276;9.372;2023-04-06T13:24:51;13.90;40.30
49413;DHT22;35493;50.276;9.372;2023-04-06T13:27:18;13.90;40.10
49413;DHT22;35493;50.276;9.372;2023-04-06T13:29:45;13.90;40.80
49413;DHT22;35493;50.276;9.372;2023-04-06T13:32:11;14.00;40.70
49413;DHT22;35493;50.276;9.372;2023-04-06T13:34:38;14.10;41.90
49413;DHT22;35493;50.276;9.372;2023-04-06T13:37:05;14.00;40.70
49413;DHT22;35493;50.276;9.372;2023-04-06T13:39:32;13.90;40.10
49413;DHT22;35493;50.276;9.372;2023-04-06T13:42:00;13.90;40.10
49413;DHT22;35493;50.276;9.372;2023-04-06T13:44:28;13.80;39.80
49413;DHT22;35493;50.276;9.372;2023-04-06T13:46:55;13.70;40.30
49413;DHT22;35493;50.276;9.372;2023-04-06T13:49:23;13.50;40.30
49413;DHT22;35493;50.276;9.372;2023-04-06T13:51:50;13.30;39.60
49413;DHT22;35493;50.276;9.372;2023-04-06T13:54:17;13.30;39.70
49413;DHT22;35493;50.276;9.372;2023-04-06T13:56:44;13.30;38.30
49413;DHT22;35493;50.276;9.372;2023-04-06T13:59:12;13.30;37.80
49413;DHT22;35493;50.276;9.372;2023-04-06T14:01:38;13.20;38.00
49413;DHT22;35493;50.276;9.372;2023-04-06T14:04:05;13.30;38.30
49413;DHT22;35493;50.276;9.372;2023-04-06T14:06:32;13.40;39.00
49413;DHT22;35493;50.276;9.372;2023-04-06T14:08:58;13.50;39.50
49413;DHT22;35493;50.276;9.372;2023-04-06T14:11:25;13.50;39.40
49413;DHT22;35493;50.276;9.372;2023-04-06T14:13:52;13.50;39.30
49413;DHT22;35493;50.276;9.372;2023-04-06T14:16:22;13.50;39.90
49413;DHT22;35493;50.276;9.372;2023-04-06T14:18:49;13.40;40.00
49413;DHT22;35493;50.276;9.372;2023-04-06T14:21:16;13.40;39.70
49413;DHT22;35493;50.276;9.372;2023-04-06T14:23:43;13.30;39.70
49413;DHT22;35493;50.276;9.372;2023-04-06T14:26:11;13.20;39.60
49413;DHT22;35493;50.276;9.372;2023-04-06T14:28:38;13.30;40.20
49413;DHT22;35493;50.276;9.372;2023-04-06T14:31:09;13.30;39.30
49413;DHT22;35493;50.276;9.372;2023-04-06T14:33:38;13.20;39.50
49413;DHT22;35493;50.276;9.372;2023-04-06T14:36:05;13.20;38.90
49413;DHT22;35493;50.276;9.372;2023-04-06T14:38:32;13.10;38.60
49413;DHT22;35493;50.276;9.372;2023-04-06T14:40:59;13.20;39.00
49413;DHT22;35493;50.276;9.372;2023-04-06T14:43:26;13.20;38.70
49413;DHT22;35493;50.276;9.372;2023-04-06T14:45:52;13.20;39.50
49413;DHT22;35493;50.276;9.372;2023-04-06T14:48:19;13.30;38.90
49413;DHT22;35493;50.276;9.372;2023-04-06T14:50:53;13.30;39.20
49413;DHT22;35493;50.276;9.372;2023-04-06T14:53:20;13.20;39.80
49413;DHT22;35493;50.276;9.372;2023-04-06T14:55:47;13.20;39.90
49413;DHT22;35493;50.276;9.372;2023-04-06T14:58:15;13.20;39.00
49413;DHT22;35493;50.276;9.372;2023-04-06T15:00:42;13.20;39.20
49413;DHT22;35493;50.276;9.372;2023-04-06T15:03:08;13.10;39.20
49413;DHT22;35493;50.276;9.372;2023-04-06T15:05:35;13.10;39.50
49413;DHT22;35493;50.276;9.372;2023-04-06T15:08:04;13.10;39.00
49413;DHT22;35493;50.276;9.372;2023-04-06T15:10:32;13.10;38.80
49413;DHT22;35493;50.276;9.372;2023-04-06T15:12:58;13.10;38.40
49413;DHT22;35493;50.276;9.372;2023-04-06T15:15:25;13.10;38.80
49413;DHT22;35493;50.276;9.372;2023-04-06T15:17:52;13.10;38.40
49413;DHT22;35493;50.276;9.372;2023-04-06T15:20:19;13.10;37.90
49413;DHT22;35493;50.276;9.372;2023-04-06T15:22:45;13.10;37.50
49413;DHT22;35493;50.276;9.372;2023-04-06T15:25:14;13.10;37.40
49413;DHT22;35493;50.276;9.372;2023-04-06T15:27:41;13.10;38.20
49413;DHT22;35493;50.276;9.372;2023-04-06T15:30:08;13.10;37.80
49413;DHT22;35493;50.276;9.372;2023-04-06T15:32:35;13.10;38.00
49413;DHT22;35493;50.276;9.372;2023-04-06T15:35:08;13.10;38.10
49413;DHT22;35493;50.276;9.372;2023-04-06T15:37:35;13.10;38.20
49413;DHT22;35493;50.276;9.372;2023-04-06T15:40:02;13.00;38.30
49413;DHT22;35493;50.276;9.372;2023-04-06T15:42:31;12.90;38.50
49413;DHT22;35493;50.276;9.372;2023-04-06T15:44:58;12.90;38.00
49413;DHT22;35493;50.276;9.372;2023-04-06T15:47:24;12.90;39.10